Time;durP1;ratioP1;P1;durP2;ratioP2;P2;SDS_P1;SDS_P2;PMS_P1;PMS_P2;Temp;Humidity;BMP_temperature;BMP_pressure;BME280_temperature;BME280_humidity;BME280_pressure;Samples;Min_cycle;Max_cycle;Signal;HPM_P1;HPM_P2
2021/03/20 00:01:43;;;;;;;1.20;1.00;;;0.00;98.00;;;;;;5072324;28;20494;-69
2021/03/20 00:04:10;;;;;;;1.20;1.00;;;0.10;98.00;;;;;;5071745;28;20451;-69
2021/03/20 00:06:41;;;;;;;1.20;1.00;;;-0.10;98.00;;;;;;5070009;28;20508;-69
2021/03/20 00:09:11;;;;;;;1.20;1.00;;;-0.20;98.00;;;;;;5072209;28;20461;-71
2021/03/20 00:11:41;;;;;;;1.60;1.53;;;-0.20;98.00;;;;;;5070359;28;20457;-69
2021/03/20 00:14:08;;;;;;;2.60;2.15;;;-0.30;98.00;;;;;;5072044;28;21028;-69
2021/03/20 00:16:34;;;;;;;1.20;1.00;;;-0.30;98.00;;;;;;5068872;28;20207;-69
2021/03/20 00:19:01;;;;;;;1.20;1.10;;;-0.30;98.00;;;;;;5072242;28;20517;-69
2021/03/20 00:21:27;;;;;;;1.20;1.00;;;-0.40;98.00;;;;;;5069848;28;20255;-69
2021/03/20 00:23:54;;;;;;;1.20;1.00;;;-0.30;98.00;;;;;;5072371;28;20264;-70
2021/03/20 00:26:20;;;;;;;2.17;1.53;;;-0.10;98.00;;;;;;5069444;28;20454;-69
2021/03/20 00:28:48;;;;;;;2.07;1.47;;;0.10;98.00;;;;;;5072107;28;20523;-69
2021/03/20 00:31:14;;;;;;;1.20;1.00;;;0.20;98.00;;;;;;5069711;28;20450;-70
2021/03/20 00:33:44;;;;;;;1.20;1.00;;;0.00;98.00;;;;;;5071778;28;20540;-69
2021/03/20 00:36:12;;;;;;;2.60;2.40;;;-0.20;98.00;;;;;;5069452;28;20542;-69
2021/03/20 00:38:40;;;;;;;1.60;1.37;;;-0.10;98.00;;;;;;5071822;28;20460;-69
2021/03/20 00:41:07;;;;;;;2.33;1.73;;;0.00;98.00;;;;;;5069218;28;20518;-69
2021/03/20 00:43:34;;;;;;;1.40;1.40;;;-0.20;98.00;;;;;;5070262;28;20477;-69
2021/03/20 00:46:03;;;;;;;2.40;1.63;;;-0.20;98.00;;;;;;5069784;28;20458;-69
2021/03/20 00:48:33;;;;;;;1.20;1.00;;;-0.20;98.00;;;;;;5071699;28;20587;-69
2021/03/20 00:51:02;;;;;;;1.50;1.40;;;-0.40;98.00;;;;;;5069031;28;20199;-69
2021/03/20 00:53:29;;;;;;;1.77;1.53;;;-0.50;98.00;;;;;;5071364;28;21280;-69
2021/03/20 00:55:56;;;;;;;1.40;1.37;;;-0.50;98.00;;;;;;5069206;28;20466;-69
2021/03/20 00:58:25;;;;;;;1.20;1.00;;;-0.30;98.00;;;;;;5071328;28;20457;-69
2021/03/20 01:00:54;;;;;;;1.20;1.00;;;-0.30;98.00;;;;;;5069116;28;20799;-68
2021/03/20 01:03:21;;;;;;;1.47;1.47;;;-0.30;98.00;;;;;;5071255;28;20207;-69
2021/03/20 01:05:48;;;;;;;1.20;1.00;;;-0.50;98.00;;;;;;5069101;28;20458;-69
2021/03/20 01:08:15;;;;;;;1.20;1.00;;;-0.50;98.00;;;;;;5071389;28;20203;-69
2021/03/20 01:10:42;;;;;;;1.20;1.10;;;-0.50;98.00;;;;;;5068700;28;20457;-69
2021/03/20 01:13:09;;;;;;;1.30;1.10;;;-0.30;98.00;;;;;;5071078;28;20463;-69
2021/03/20 01:15:36;;;;;;;1.20;1.00;;;-0.30;98.00;;;;;;5069003;28;20242;-69
2021/03/20 01:18:03;;;;;;;1.20;1.00;;;-0.20;98.00;;;;;;5070867;28;20477;-69
2021/03/20 01:20:31;;;;;;;1.20;0.90;;;-0.10;98.00;;;;;;5068786;28;20231;-69
2021/03/20 01:22:57;;;;;;;1.20;0.90;;;-0.20;98.00;;;;;;5071313;28;20581;-69
2021/03/20 01:25:24;;;;;;;1.30;1.10;;;-0.30;98.00;;;;;;5069207;28;20494;-69
2021/03/20 01:27:51;;;;;;;1.70;1.60;;;-0.30;98.00;;;;;;5071579;28;20207;-69
2021/03/20 01:30:22;;;;;;;1.20;0.90;;;-0.60;98.00;;;;;;5069491;28;20454;-69
2021/03/20 01:32:49;;;;;;;3.10;1.83;;;-0.80;98.00;;;;;;5071249;28;20211;-68
2021/03/20 01:35:16;;;;;;;1.63;1.35;;;-0.80;98.00;;;;;;5068833;28;20482;-70
2021/03/20 01:37:44;;;;;;;1.20;1.08;;;-0.80;98.00;;;;;;5071054;28;20649;-69
2021/03/20 01:40:14;;;;;;;1.40;1.10;;;-0.80;98.00;;;;;;5068712;28;20254;-69
2021/03/20 01:42:42;;;;;;;1.30;1.27;;;-0.90;98.00;;;;;;5070899;28;20504;-69
2021/03/20 01:45:15;;;;;;;1.63;1.52;;;-1.00;98.00;;;;;;5068846;28;20912;-69
2021/03/20 01:47:49;;;;;;;1.20;1.00;;;-1.00;98.00;;;;;;5069844;28;20214;-69
2021/03/20 01:50:25;;;;;;;1.30;1.13;;;-1.10;98.00;;;;;;5068657;28;20211;-69
2021/03/20 01:52:57;;;;;;;1.40;1.40;;;-1.00;98.00;;;;;;5069632;28;20806;-69
2021/03/20 01:55:25;;;;;;;4.15;1.92;;;-1.10;98.00;;;;;;5068764;28;20483;-69
2021/03/20 01:57:56;;;;;;;1.20;1.00;;;-1.10;98.00;;;;;;5070570;28;20275;-69
2021/03/20 02:00:27;;;;;;;1.55;1.45;;;-1.00;98.00;;;;;;5068396;28;20269;-70
2021/03/20 02:02:54;;;;;;;1.20;1.07;;;-0.90;98.00;;;;;;5070843;28;20211;-69
2021/03/20 02:05:23;;;;;;;1.20;1.00;;;-0.90;98.00;;;;;;5068375;28;20453;-69
2021/03/20 02:07:50;;;;;;;1.20;1.00;;;-0.70;98.00;;;;;;5070833;28;20513;-69
2021/03/20 02:10:18;;;;;;;1.20;1.00;;;-0.60;98.00;;;;;;5068328;28;21034;-70
2021/03/20 02:12:48;;;;;;;1.20;1.10;;;-0.50;98.00;;;;;;5070661;28;20214;-69
2021/03/20 02:15:22;;;;;;;1.40;1.30;;;-0.50;98.00;;;;;;5068095;28;21049;-69
2021/03/20 02:17:54;;;;;;;1.20;1.00;;;-0.40;98.00;;;;;;5070871;28;20835;-69
2021/03/20 02:20:58;;;;;;;1.20;0.98;;;-0.50;98.00;;;;;;5068648;28;20514;-69
2021/03/20 02:23:56;;;;;;;1.20;1.03;;;-0.50;98.00;;;;;;5070498;28;20269;-69
2021/03/20 02:27:03;;;;;;;1.50;1.40;;;-0.50;98.00;;;;;;5068259;28;20469;-69
2021/03/20 02:29:58;;;;;;;1.30;1.23;;;-0.30;98.00;;;;;;5070514;28;20472;-70
2021/03/20 02:32:53;;;;;;;1.20;1.00;;;-0.10;98.00;;;;;;5074472;28;21010;-68
2021/03/20 02:35:28;;;;;;;1.55;1.33;;;-0.10;98.00;;;;;;5071699;28;20487;-69
2021/03/20 02:38:06;;;;;;;1.20;1.00;;;0.00;98.00;;;;;;5074265;28;20201;-69
2021/03/20 02:40:41;;;;;;;1.40;1.17;;;0.00;98.00;;;;;;5071854;28;20455;-68
2021/03/20 02:43:16;;;;;;;1.20;1.10;;;-0.10;98.00;;;;;;5074029;28;20462;-69
2021/03/20 02:45:46;;;;;;;1.87;1.77;;;-0.30;98.00;;;;;;5071666;28;20454;-69
2021/03/20 02:48:19;;;;;;;1.20;1.00;;;-0.30;98.00;;;;;;5073977;28;20459;-69
2021/03/20 02:50:55;;;;;;;1.40;1.10;;;-0.30;98.00;;;;;;5071609;28;20825;-69
2021/03/20 02:53:27;;;;;;;1.30;1.20;;;-0.40;98.00;;;;;;5073995;28;20487;-69
2021/03/20 02:55:57;;;;;;;1.20;1.10;;;-0.40;98.00;;;;;;5071361;28;20458;-68
2021/03/20 02:58:28;;;;;;;2.17;1.47;;;-0.40;98.00;;;;;;5073622;28;20523;-69
2021/03/20 03:00:57;;;;;;;1.30;1.20;;;-0.40;98.00;;;;;;5071271;28;20494;-69
2021/03/20 03:03:29;;;;;;;1.20;1.07;;;-0.20;98.00;;;;;;5073833;28;20469;-68
2021/03/20 03:05:59;;;;;;;3.80;1.40;;;-0.10;98.00;;;;;;5071301;28;20497;-69
2021/03/20 03:08:31;;;;;;;3.93;3.23;;;-0.10;98.00;;;;;;5073537;28;20462;-69
2021/03/20 03:11:02;;;;;;;1.20;1.03;;;0.00;98.00;;;;;;5070912;28;20867;-69
2021/03/20 03:13:31;;;;;;;2.27;1.67;;;0.00;98.00;;;;;;5072039;28;20540;-69
2021/03/20 03:16:03;;;;;;;1.20;0.90;;;0.20;98.00;;;;;;5070912;28;20461;-68
2021/03/20 03:18:35;;;;;;;1.53;1.23;;;0.40;98.00;;;;;;5073224;28;20458;-69
2021/03/20 03:21:06;;;;;;;1.30;1.10;;;0.30;98.00;;;;;;5070954;28;20466;-69
2021/03/20 03:23:37;;;;;;;1.20;1.00;;;0.30;98.00;;;;;;5073199;28;20487;-69
2021/03/20 03:26:11;;;;;;;2.03;1.67;;;0.40;98.00;;;;;;5071274;28;20541;-69
2021/03/20 03:28:44;;;;;;;1.20;1.03;;;0.50;98.00;;;;;;5071983;28;20466;-68
2021/03/20 03:31:17;;;;;;;1.20;1.00;;;0.60;98.00;;;;;;5071143;28;20931;-69
2021/03/20 03:33:50;;;;;;;1.10;1.00;;;0.40;98.00;;;;;;5073359;28;20503;-69
2021/03/20 03:36:19;;;;;;;1.20;1.00;;;0.10;98.00;;;;;;5070520;28;20457;-69
2021/03/20 03:38:52;;;;;;;6.97;2.07;;;0.00;98.00;;;;;;5073007;28;20463;-69
2021/03/20 03:41:23;;;;;;;1.90;1.30;;;0.10;98.00;;;;;;5070209;28;20454;-69
2021/03/20 03:43:51;;;;;;;1.57;1.30;;;0.00;98.00;;;;;;5073112;28;20498;-69
2021/03/20 03:46:21;;;;;;;1.40;1.17;;;0.10;98.00;;;;;;5070436;28;20502;-69
2021/03/20 03:48:52;;;;;;;1.20;1.00;;;0.00;98.00;;;;;;5072941;28;20508;-68
2021/03/20 03:51:21;;;;;;;1.50;1.33;;;0.10;98.00;;;;;;5070452;28;20482;-69
2021/03/20 03:53:48;;;;;;;1.20;1.00;;;0.20;98.00;;;;;;5072771;28;20534;-69
2021/03/20 03:56:28;;;;;;;2.40;1.40;;;0.20;98.00;;;;;;5070714;28;20995;-69
2021/03/20 03:59:03;;;;;;;1.60;1.10;;;0.20;98.00;;;;;;5072630;28;20462;-69
2021/03/20 04:01:43;;;;;;;1.30;1.10;;;0.10;98.00;;;;;;5070450;28;20489;-69
2021/03/20 04:04:32;;;;;;;1.80;1.20;;;0.10;98.00;;;;;;5072580;28;20459;-68
2021/03/20 04:07:12;;;;;;;8.30;2.40;;;0.20;98.00;;;;;;5068257;28;20552;-69
2021/03/20 04:09:50;;;;;;;1.37;1.30;;;0.40;98.00;;;;;;5071143;28;20459;-69
2021/03/20 04:12:22;;;;;;;1.30;1.30;;;0.40;98.00;;;;;;5072012;28;20458;-69
2021/03/20 04:14:56;;;;;;;1.20;1.10;;;0.40;98.00;;;;;;5069460;28;20485;-69
2021/03/20 04:17:28;;;;;;;1.40;1.33;;;0.40;98.00;;;;;;5071919;28;20457;-69
2021/03/20 04:20:02;;;;;;;3.03;1.23;;;0.40;98.00;;;;;;5068196;28;20513;-69
2021/03/20 04:22:36;;;;;;;1.70;1.47;;;0.30;98.00;;;;;;5072162;28;20467;-69
2021/03/20 04:25:09;;;;;;;1.40;1.30;;;0.10;98.00;;;;;;5069841;28;20465;-69
2021/03/20 04:27:43;;;;;;;2.53;2.00;;;0.00;98.00;;;;;;5072196;28;20460;-69
2021/03/20 04:30:15;;;;;;;1.43;1.33;;;0.00;98.00;;;;;;5069670;28;20482;-69
2021/03/20 04:32:48;;;;;;;1.30;1.20;;;0.00;98.00;;;;;;5072335;28;20454;-69
2021/03/20 04:35:19;;;;;;;1.40;1.33;;;-0.10;98.00;;;;;;5069921;28;21007;-69
2021/03/20 04:37:50;;;;;;;1.23;1.13;;;-0.10;98.00;;;;;;5072088;28;20590;-68
2021/03/20 04:40:27;;;;;;;1.40;1.40;;;-0.10;98.00;;;;;;5069277;28;20548;-68
2021/03/20 04:42:55;;;;;;;1.43;1.20;;;-0.10;98.00;;;;;;5071792;28;20466;-69
2021/03/20 04:45:29;;;;;;;1.20;1.00;;;-0.10;98.00;;;;;;5069940;28;20516;-69
2021/03/20 04:47:59;;;;;;;1.30;1.10;;;0.10;98.00;;;;;;5071464;28;20512;-68
2021/03/20 04:50:28;;;;;;;2.60;1.73;;;0.00;98.00;;;;;;5068630;28;20533;-69
2021/03/20 04:52:57;;;;;;;3.77;1.77;;;0.00;98.00;;;;;;5071399;28;20453;-69
2021/03/20 04:55:24;;;;;;;1.57;1.23;;;-0.10;98.00;;;;;;5069064;28;20549;-69
2021/03/20 04:57:54;;;;;;;1.20;1.00;;;-0.10;98.00;;;;;;5071458;28;20455;-68
2021/03/20 05:00:27;;;;;;;1.40;1.37;;;-0.20;98.00;;;;;;5068668;28;20451;-69
2021/03/20 05:02:58;;;;;;;2.23;1.87;;;-0.10;98.00;;;;;;5071584;28;20806;-69
2021/03/20 05:05:31;;;;;;;3.13;1.43;;;-0.10;98.00;;;;;;5069464;28;20461;-68
2021/03/20 05:08:01;;;;;;;1.20;1.00;;;-0.10;98.00;;;;;;5071289;28;20945;-69
2021/03/20 05:10:33;;;;;;;3.67;1.73;;;-0.30;98.00;;;;;;5069150;28;20454;-69
2021/03/20 05:13:03;;;;;;;1.20;1.10;;;-0.20;98.00;;;;;;5071288;28;20906;-69
2021/03/20 05:15:32;;;;;;;1.20;1.00;;;-0.20;98.00;;;;;;5069129;28;20477;-69
2021/03/20 05:17:59;;;;;;;1.40;1.30;;;-0.20;98.00;;;;;;5071528;28;20840;-69
2021/03/20 05:20:25;;;;;;;1.20;1.10;;;-0.30;98.00;;;;;;5069060;28;20482;-68
2021/03/20 05:22:53;;;;;;;1.20;1.00;;;-0.30;98.00;;;;;;5071125;28;20477;-69
2021/03/20 05:25:24;;;;;;;1.20;1.00;;;-0.40;98.00;;;;;;5068570;28;20458;-69
2021/03/20 05:27:52;;;;;;;1.20;1.00;;;-0.40;98.00;;;;;;5071289;28;20455;-68
2021/03/20 05:30:20;;;;;;;1.20;1.00;;;-0.40;98.00;;;;;;5068810;28;20995;-69
2021/03/20 05:32:47;;;;;;;1.47;1.43;;;-0.50;98.00;;;;;;5070916;28;20575;-69
2021/03/20 05:35:21;;;;;;;2.10;1.40;;;-0.60;98.00;;;;;;5068839;28;20517;-69
2021/03/20 05:37:48;;;;;;;1.73;1.50;;;-0.50;98.00;;;;;;5071196;28;20486;-68
2021/03/20 05:40:21;;;;;;;1.20;1.00;;;-0.50;98.00;;;;;;5068955;28;20467;-69
2021/03/20 05:43:05;;;;;;;1.20;1.00;;;-0.40;98.00;;;;;;5070994;28;20951;-69
2021/03/20 05:45:35;;;;;;;1.20;1.10;;;-0.60;98.00;;;;;;5069017;28;20457;-69
2021/03/20 05:48:14;;;;;;;1.20;1.10;;;-0.60;98.00;;;;;;5071080;28;20450;-68
2021/03/20 05:51:31;;;;;;;1.20;1.00;;;-0.60;98.00;;;;;;5069004;28;20859;-69
2021/03/20 05:54:19;;;;;;;1.20;1.10;;;-0.50;98.00;;;;;;5032551;28;20240;-69
2021/03/20 05:56:56;;;;;;;3.23;1.53;;;-0.40;98.00;;;;;;5068666;28;20204;-69
2021/03/20 05:59:35;;;;;;;1.45;1.42;;;-0.40;98.00;;;;;;5071086;28;20477;-69
2021/03/20 06:02:20;;;;;;;1.20;1.10;;;-0.30;98.00;;;;;;5068287;28;20213;-69
2021/03/20 06:04:55;;;;;;;1.20;1.10;;;-0.10;98.00;;;;;;5074651;28;20529;-70
2021/03/20 06:07:50;;;;;;;1.20;1.20;;;0.10;98.00;;;;;;5074669;28;20243;-69
2021/03/20 06:10:46;;;;;;;1.20;1.20;;;0.10;98.00;;;;;;5071255;28;20458;-69
2021/03/20 06:13:40;;;;;;;2.80;2.03;;;0.10;98.00;;;;;;5065517;28;20471;-69
2021/03/20 06:16:21;;;;;;;1.20;1.00;;;0.00;98.00;;;;;;5071818;28;20489;-68
2021/03/20 06:19:01;;;;;;;1.10;1.00;;;0.10;98.00;;;;;;5074537;28;20456;-69
2021/03/20 06:21:40;;;;;;;1.20;1.10;;;0.10;98.00;;;;;;5071971;28;20468;-69
2021/03/20 06:24:39;;;;;;;1.97;1.40;;;0.00;98.00;;;;;;5074560;28;20212;-69
2021/03/20 06:27:10;;;;;;;1.40;1.10;;;0.00;98.00;;;;;;5071814;28;20470;-69
2021/03/20 06:29:42;;;;;;;1.20;1.00;;;-0.10;98.00;;;;;;5074268;28;20211;-69
2021/03/20 06:32:20;;;;;;;1.20;0.90;;;-0.10;98.00;;;;;;5071852;28;20688;-68
2021/03/20 06:34:54;;;;;;;1.20;1.10;;;-0.10;98.00;;;;;;5074163;28;20642;-68
2021/03/20 06:37:27;;;;;;;1.60;1.20;;;0.00;98.00;;;;;;5073674;28;20454;-69
2021/03/20 06:40:01;;;;;;;1.20;1.00;;;0.10;98.00;;;;;;5071518;28;20486;-69
2021/03/20 06:42:31;;;;;;;1.70;1.30;;;0.30;98.00;;;;;;5073999;28;20522;-69
2021/03/20 06:45:03;;;;;;;1.20;1.00;;;0.30;98.00;;;;;;5071379;28;20455;-70
2021/03/20 06:47:33;;;;;;;1.20;1.00;;;0.30;98.00;;;;;;5074301;28;20465;-68
2021/03/20 06:50:03;;;;;;;1.20;1.20;;;0.40;98.00;;;;;;5071553;28;20453;-69
2021/03/20 06:52:32;;;;;;;1.20;1.00;;;0.20;98.00;;;;;;5073853;28;20850;-69
2021/03/20 06:55:06;;;;;;;1.20;1.00;;;0.20;98.00;;;;;;5071372;28;20517;-69
2021/03/20 06:57:32;;;;;;;1.30;1.10;;;0.20;98.00;;;;;;5074011;28;20959;-69
2021/03/20 07:00:15;;;;;;;1.50;1.20;;;0.30;98.00;;;;;;5071547;28;20465;-69
2021/03/20 07:02:55;;;;;;;1.20;1.00;;;0.40;98.00;;;;;;5073559;28;20452;-69
2021/03/20 07:05:26;;;;;;;1.20;1.00;;;0.40;98.00;;;;;;5071254;28;20230;-68
2021/03/20 07:08:28;;;;;;;1.20;1.00;;;0.40;98.00;;;;;;5073618;28;20247;-69
2021/03/20 07:10:56;;;;;;;1.63;1.48;;;0.40;98.00;;;;;;5063807;28;20242;-69
2021/03/20 07:13:24;;;;;;;1.20;0.90;;;0.50;98.00;;;;;;5073426;28;20204;-69
2021/03/20 07:16:09;;;;;;;1.20;1.00;;;0.70;98.00;;;;;;5069791;28;20483;-69
2021/03/20 07:18:47;;;;;;;1.20;1.00;;;0.90;98.00;;;;;;5073299;28;21020;-69
2021/03/20 07:21:27;;;;;;;1.20;1.00;;;0.90;98.00;;;;;;5071317;28;20541;-69
2021/03/20 07:23:56;;;;;;;1.20;1.00;;;1.00;98.00;;;;;;5073338;28;20244;-69
2021/03/20 07:26:23;;;;;;;1.20;0.90;;;1.20;98.00;;;;;;5070912;28;20457;-69
2021/03/20 07:28:53;;;;;;;1.20;0.90;;;1.20;98.00;;;;;;5073106;28;20461;-69
2021/03/20 07:31:21;;;;;;;1.20;1.00;;;1.20;98.00;;;;;;5070626;28;20466;-69
2021/03/20 07:33:49;;;;;;;1.20;1.20;;;1.20;98.00;;;;;;5073148;28;20951;-68
2021/03/20 07:36:35;;;;;;;1.20;1.00;;;1.40;98.00;;;;;;5070673;28;20463;-69
2021/03/20 07:39:20;;;;;;;1.20;1.00;;;1.60;98.00;;;;;;5072961;28;20451;-69
2021/03/20 07:41:50;;;;;;;1.40;1.10;;;1.80;97.20;;;;;;5070418;28;20470;-68
2021/03/20 07:44:17;;;;;;;1.20;1.00;;;1.90;94.40;;;;;;5072758;28;20529;-68
2021/03/20 07:46:45;;;;;;;1.20;1.00;;;1.80;93.40;;;;;;5070637;28;20475;-68
2021/03/20 07:49:23;;;;;;;1.20;1.00;;;1.90;92.50;;;;;;5073239;28;20850;-68
2021/03/20 07:51:51;;;;;;;1.20;0.90;;;1.80;92.20;;;;;;5070302;28;20470;-68
2021/03/20 07:54:30;;;;;;;1.20;0.90;;;1.90;91.50;;;;;;5072945;28;20502;-69
2021/03/20 07:57:09;;;;;;;1.20;1.00;;;2.00;91.30;;;;;;5070374;28;20496;-68
2021/03/20 07:59:44;;;;;;;1.20;1.00;;;1.90;90.70;;;;;;5071595;28;20855;-70
2021/03/20 08:02:26;;;;;;;1.20;0.90;;;1.70;88.50;;;;;;5070258;28;20556;-69
2021/03/20 08:04:58;;;;;;;1.20;0.90;;;1.50;88.80;;;;;;5072560;28;20445;-69
2021/03/20 08:07:36;;;;;;;1.40;1.10;;;1.40;88.60;;;;;;5070645;28;20552;-71
2021/03/20 08:10:28;;;;;;;1.20;1.00;;;1.40;88.70;;;;;;5070940;28;20946;-69
2021/03/20 08:12:57;;;;;;;1.20;1.00;;;1.40;89.00;;;;;;5072347;28;20454;-69
2021/03/20 08:15:27;;;;;;;1.20;1.00;;;1.40;89.30;;;;;;5069720;28;20597;-69
2021/03/20 08:17:56;;;;;;;1.30;1.25;;;1.40;88.20;;;;;;5072185;28;20216;-68
2021/03/20 08:20:23;;;;;;;1.40;1.10;;;1.40;88.20;;;;;;5069834;28;20578;-69
2021/03/20 08:23:26;;;;;;;1.20;1.02;;;1.50;87.80;;;;;;5072326;28;20461;-68
2021/03/20 08:25:58;;;;;;;2.07;1.60;;;1.70;88.50;;;;;;5058805;28;20575;-69
2021/03/20 08:28:45;;;;;;;1.20;0.90;;;1.80;85.30;;;;;;5072064;28;20460;-68
2021/03/20 08:31:23;;;;;;;1.20;1.20;;;1.80;83.80;;;;;;5069461;28;20475;-70
2021/03/20 08:34:02;;;;;;;1.20;1.10;;;1.80;82.10;;;;;;5071780;28;20490;-70
2021/03/20 08:36:40;;;;;;;1.20;1.00;;;1.70;82.30;;;;;;5069407;28;20849;-70
2021/03/20 08:39:20;;;;;;;1.20;1.00;;;2.00;81.60;;;;;;5071894;28;20541;-68
2021/03/20 08:41:58;;;;;;;1.20;1.00;;;2.20;80.80;;;;;;5069843;28;20460;-69
2021/03/20 08:45:03;;;;;;;1.23;1.10;;;2.20;80.50;;;;;;5071923;28;21008;-68
2021/03/20 08:47:58;;;;;;;1.20;1.00;;;2.30;81.90;;;;;;5063359;28;20557;-69
2021/03/20 08:50:35;;;;;;;1.20;1.00;;;2.40;82.40;;;;;;5069246;28;20451;-70
2021/03/20 08:53:10;;;;;;;2.70;1.77;;;2.50;82.60;;;;;;5071608;28;20459;-70
2021/03/20 08:55:56;;;;;;;1.20;1.00;;;2.70;83.10;;;;;;5069110;28;21007;-70
2021/03/20 08:58:35;;;;;;;1.40;1.10;;;2.60;80.40;;;;;;5070292;28;20464;-71
2021/03/20 09:01:06;;;;;;;1.20;0.90;;;2.50;81.60;;;;;;5067951;28;20953;-70
2021/03/20 09:03:39;;;;;;;1.20;1.00;;;2.60;79.20;;;;;;5071395;28;20479;-71
2021/03/20 09:06:17;;;;;;;1.20;1.00;;;2.80;79.30;;;;;;5069242;28;20471;-70
2021/03/20 09:08:44;;;;;;;1.20;1.00;;;3.00;77.80;;;;;;5071267;28;20460;-71
2021/03/20 09:11:27;;;;;;;1.20;1.00;;;3.10;76.70;;;;;;5068933;28;20455;-69
2021/03/20 09:13:59;;;;;;;1.20;1.00;;;3.10;75.60;;;;;;5071582;28;20942;-71
2021/03/20 09:16:33;;;;;;;1.20;0.90;;;3.10;75.10;;;;;;5068522;28;20452;-70
2021/03/20 09:19:03;;;;;;;1.20;0.90;;;3.20;76.00;;;;;;5071323;28;20546;-69
2021/03/20 09:21:31;;;;;;;1.20;1.00;;;3.20;76.10;;;;;;5068897;28;20467;-71
2021/03/20 09:24:06;;;;;;;2.23;1.87;;;3.30;75.60;;;;;;5071145;28;20517;-71
2021/03/20 09:26:43;;;;;;;1.30;1.10;;;3.40;77.10;;;;;;5069103;28;20949;-71
2021/03/20 09:29:20;;;;;;;1.20;1.00;;;3.50;77.00;;;;;;5071241;28;20467;-69
2021/03/20 09:32:09;;;;;;;1.20;1.00;;;3.60;76.40;;;;;;5068448;28;20463;-69
2021/03/20 09:34:46;;;;;;;1.20;1.00;;;3.70;77.40;;;;;;5071015;28;20480;-70
2021/03/20 09:38:00;;;;;;;1.20;1.00;;;3.80;77.60;;;;;;5068592;28;20531;-70
2021/03/20 09:40:49;;;;;;;1.20;1.00;;;3.90;76.20;;;;;;5072759;28;20895;-69
2021/03/20 09:43:41;;;;;;;1.20;1.00;;;4.00;76.90;;;;;;5074836;28;20551;-70
2021/03/20 09:46:48;;;;;;;1.20;1.00;;;4.10;76.00;;;;;;5062180;28;20487;-70
2021/03/20 09:49:38;;;;;;;1.20;1.00;;;4.40;74.10;;;;;;5075117;28;21194;-69
2021/03/20 09:52:06;;;;;;;1.40;1.30;;;4.60;74.40;;;;;;5072647;28;20860;-70
2021/03/20 09:54:49;;;;;;;1.20;0.90;;;4.90;72.00;;;;;;5074851;28;20515;-71
2021/03/20 09:57:48;;;;;;;1.20;1.00;;;5.10;72.80;;;;;;5072507;28;20455;-70
2021/03/20 10:01:03;;;;;;;1.20;1.00;;;5.40;71.40;;;;;;5072545;28;20917;-71
2021/03/20 10:03:48;;;;;;;1.20;0.97;;;5.10;68.80;;;;;;5074713;28;20503;-71
2021/03/20 10:06:32;;;;;;;1.20;1.10;;;5.30;69.20;;;;;;5072341;28;20927;-70
2021/03/20 10:09:24;;;;;;;1.20;1.00;;;5.50;69.10;;;;;;5074679;28;20456;-69
2021/03/20 10:12:19;;;;;;;1.20;0.97;;;5.70;69.40;;;;;;5072060;28;20547;-70
2021/03/20 10:15:21;;;;;;;1.20;1.00;;;5.90;69.10;;;;;;5049962;28;20480;-71
2021/03/20 10:18:29;;;;;;;1.20;1.00;;;6.00;71.10;;;;;;5073992;28;20463;-71
2021/03/20 10:21:15;;;;;;;1.20;0.90;;;6.10;69.40;;;;;;5071752;28;20457;-71
2021/03/20 10:23:46;;;;;;;1.20;0.90;;;6.40;68.60;;;;;;5073913;28;21009;-70
2021/03/20 10:26:21;;;;;;;1.20;0.90;;;6.50;65.80;;;;;;5071787;28;20906;-70
2021/03/20 10:29:03;;;;;;;1.20;0.90;;;6.30;66.10;;;;;;5073828;28;21164;-71
2021/03/20 10:31:36;;;;;;;1.30;1.20;;;6.10;65.50;;;;;;5069362;28;20467;-69
2021/03/20 10:34:08;;;;;;;2.03;1.10;;;6.30;66.40;;;;;;5073144;28;20868;-69
2021/03/20 10:36:39;;;;;;;1.50;1.20;;;6.40;66.10;;;;;;5070076;28;20464;-71
2021/03/20 10:39:27;;;;;;;1.20;1.10;;;6.30;67.70;;;;;;5073233;28;20453;-72
2021/03/20 10:41:58;;;;;;;1.20;1.10;;;6.50;69.20;;;;;;5462145;22;20453;-67
2021/03/20 10:44:27;;;;;;;1.63;1.10;;;6.70;68.50;;;;;;5052362;28;20484;-65
2021/03/20 10:47:08;;;;;;;1.20;1.00;;;6.90;65.40;;;;;;5051093;28;20855;-66
2021/03/20 10:49:40;;;;;;;1.73;1.20;;;7.00;65.50;;;;;;5052569;28;20497;-65
2021/03/20 10:52:16;;;;;;;1.20;1.00;;;7.10;67.00;;;;;;5051414;28;20454;-63
2021/03/20 10:54:45;;;;;;;1.20;1.00;;;6.90;66.50;;;;;;5052829;28;20486;-65
2021/03/20 10:57:15;;;;;;;1.20;1.00;;;6.60;66.50;;;;;;5051046;28;20527;-66
2021/03/20 10:59:44;;;;;;;1.20;1.00;;;6.60;66.00;;;;;;5052931;28;20454;-66
2021/03/20 11:02:27;;;;;;;1.20;0.97;;;6.70;65.40;;;;;;5051046;28;20534;-65
2021/03/20 11:05:09;;;;;;;1.47;1.30;;;7.00;64.60;;;;;;5052666;28;20456;-65
2021/03/20 11:07:45;;;;;;;1.20;0.97;;;7.50;63.30;;;;;;5050554;28;20823;-65
2021/03/20 11:10:13;;;;;;;1.20;1.00;;;7.70;64.50;;;;;;5052503;28;20971;-62
2021/03/20 11:12:40;;;;;;;1.20;1.00;;;7.90;65.20;;;;;;5049600;28;20487;-63
2021/03/20 11:15:07;;;;;;;1.20;1.10;;;8.10;65.20;;;;;;5052394;28;20888;-64
2021/03/20 11:17:35;;;;;;;1.20;1.00;;;8.00;64.50;;;;;;5050388;28;20457;-63
2021/03/20 11:20:09;;;;;;;1.20;1.00;;;8.20;62.70;;;;;;5052409;28;20455;-64
2021/03/20 11:22:39;;;;;;;1.20;1.00;;;8.30;61.10;;;;;;5050503;28;20508;-64
2021/03/20 11:25:09;;;;;;;1.20;1.00;;;8.20;62.60;;;;;;5052282;28;20474;-63
2021/03/20 11:27:39;;;;;;;1.20;1.00;;;8.20;61.80;;;;;;5050239;28;20460;-64
2021/03/20 11:30:14;;;;;;;1.20;0.90;;;8.30;62.90;;;;;;5052079;28;20502;-64
2021/03/20 11:32:44;;;;;;;1.20;1.00;;;8.50;61.90;;;;;;5050508;28;20454;-64
2021/03/20 11:35:18;;;;;;;1.20;1.00;;;8.80;61.00;;;;;;5052337;28;20876;-64
2021/03/20 11:37:45;;;;;;;1.20;1.00;;;8.80;60.50;;;;;;5050213;28;20475;-64
2021/03/20 11:40:26;;;;;;;1.30;1.03;;;8.90;60.50;;;;;;5052205;28;20792;-64
2021/03/20 11:42:54;;;;;;;2.13;1.20;;;9.00;59.90;;;;;;5051982;28;20886;-64
2021/03/20 11:45:26;;;;;;;1.30;1.20;;;8.70;61.60;;;;;;5051853;28;20483;-63
2021/03/20 11:47:59;;;;;;;1.20;1.10;;;8.90;61.50;;;;;;5051623;28;20463;-64
2021/03/20 11:50:29;;;;;;;1.40;1.20;;;9.00;62.80;;;;;;5050333;28;20464;-62
2021/03/20 11:53:00;;;;;;;1.20;0.93;;;9.20;61.30;;;;;;5051896;28;20488;-63
2021/03/20 11:55:36;;;;;;;1.50;1.10;;;9.40;60.20;;;;;;5049892;28;20486;-63
2021/03/20 11:58:06;;;;;;;1.20;1.00;;;9.20;60.30;;;;;;5051692;28;20455;-63
2021/03/20 12:00:39;;;;;;;1.20;1.00;;;9.10;61.00;;;;;;5049075;28;20536;-63
2021/03/20 12:03:25;;;;;;;1.20;1.00;;;8.90;60.40;;;;;;5052177;28;20465;-63
2021/03/20 12:05:54;;;;;;;1.20;0.90;;;8.60;61.20;;;;;;5048903;28;20462;-63
2021/03/20 12:08:27;;;;;;;1.60;1.17;;;8.40;61.80;;;;;;5051237;28;20455;-63
2021/03/20 12:11:00;;;;;;;1.20;1.00;;;8.00;61.90;;;;;;5049818;28;20957;-63
2021/03/20 12:13:45;;;;;;;1.20;0.93;;;7.50;62.60;;;;;;5051368;28;20944;-63
2021/03/20 12:16:30;;;;;;;1.20;1.00;;;7.30;62.30;;;;;;5049526;28;20589;-63
2021/03/20 12:19:19;;;;;;;1.20;1.00;;;7.30;61.60;;;;;;5049876;28;20455;-64
2021/03/20 12:21:59;;;;;;;1.20;1.00;;;7.30;60.60;;;;;;5049343;28;20445;-65
2021/03/20 12:24:30;;;;;;;1.20;1.00;;;7.50;63.10;;;;;;5051766;28;20458;-65
2021/03/20 12:26:57;;;;;;;1.40;1.27;;;7.40;61.60;;;;;;5049707;28;20505;-63
2021/03/20 12:29:35;;;;;;;1.70;1.30;;;7.20;60.20;;;;;;5051231;28;20516;-64
2021/03/20 12:32:23;;;;;;;1.20;1.00;;;7.40;60.80;;;;;;5049296;28;20469;-65
2021/03/20 12:34:50;;;;;;;1.20;1.00;;;7.30;63.20;;;;;;5051273;28;20761;-63
2021/03/20 12:37:21;;;;;;;1.20;1.00;;;7.40;64.00;;;;;;5049378;28;20485;-64
2021/03/20 12:39:50;;;;;;;1.20;1.00;;;7.60;63.60;;;;;;5051297;28;20452;-64
2021/03/20 12:42:16;;;;;;;1.20;1.00;;;7.50;61.50;;;;;;5049244;28;20581;-63
2021/03/20 12:44:47;;;;;;;1.20;0.97;;;7.30;63.60;;;;;;5051057;28;20458;-66
2021/03/20 12:47:18;;;;;;;1.53;1.20;;;7.40;63.90;;;;;;5049256;28;20978;-65
2021/03/20 12:49:45;;;;;;;1.20;1.03;;;7.50;61.80;;;;;;5051074;28;20465;-65
2021/03/20 12:52:18;;;;;;;1.20;1.00;;;7.60;61.70;;;;;;5049457;28;20466;-65
2021/03/20 12:54:48;;;;;;;1.20;1.00;;;7.90;60.10;;;;;;5051008;28;20489;-64
2021/03/20 12:57:19;;;;;;;1.80;1.57;;;8.00;60.10;;;;;;5049361;28;20511;-64
2021/03/20 12:59:45;;;;;;;12.00;1.67;;;8.10;60.30;;;;;;5050987;28;20461;-64
2021/03/20 13:02:13;;;;;;;1.20;1.03;;;8.30;58.90;;;;;;5049421;28;20537;-64
2021/03/20 13:04:40;;;;;;;1.20;1.20;;;8.40;59.30;;;;;;5051053;28;20455;-65
2021/03/20 13:07:08;;;;;;;1.30;1.10;;;8.50;59.30;;;;;;5049231;28;20460;-65
2021/03/20 13:09:36;;;;;;;1.20;1.00;;;8.30;57.20;;;;;;5050909;28;20472;-67
2021/03/20 13:12:04;;;;;;;1.43;1.10;;;8.30;59.30;;;;;;5049152;28;20519;-67
2021/03/20 13:14:30;;;;;;;1.20;1.20;;;8.30;60.90;;;;;;5050930;28;20468;-67
2021/03/20 13:16:57;;;;;;;1.23;1.07;;;8.30;61.10;;;;;;5049092;28;20466;-67
2021/03/20 13:19:23;;;;;;;1.30;1.20;;;8.50;61.20;;;;;;5050449;28;20535;-67
2021/03/20 13:21:50;;;;;;;1.20;1.00;;;8.30;58.20;;;;;;5046364;28;20490;-65
2021/03/20 13:24:18;;;;;;;1.20;1.00;;;8.30;59.90;;;;;;5050492;28;20465;-65
2021/03/20 13:26:47;;;;;;;1.20;1.00;;;8.30;60.60;;;;;;5031267;28;20465;-65
2021/03/20 13:29:13;;;;;;;1.97;1.03;;;8.40;61.30;;;;;;5050631;28;20452;-65
2021/03/20 13:31:40;;;;;;;1.20;1.00;;;8.50;61.80;;;;;;5048722;28;20460;-65